Time;durP1;ratioP1;P1;durP2;ratioP2;P2;SDS_P1;SDS_P2;PMS_P1;PMS_P2;Temp;Humidity;BMP_temperature;BMP_pressure;BME280_temperature;BME280_humidity;BME280_pressure;Samples;Min_cycle;Max_cycle;Signal;HPM_P1;HPM_P2
2022/06/04 00:00:38;;;;;;;7.00;5.88;;;;;;;21.59;98.92;98586.47;5019582;28;20201;-61
2022/06/04 00:03:04;;;;;;;6.43;5.40;;;;;;;21.70;98.65;98596.66;5036458;28;20182;-61
2022/06/04 00:05:33;;;;;;;6.40;5.80;;;;;;;21.60;97.84;98580.19;5030502;28;20193;-60
2022/06/04 00:08:00;;;;;;;8.15;5.60;;;;;;;21.71;97.17;98585.97;5032491;28;20181;-60
2022/06/04 00:16:05;;;;;;;12.35;6.13;;;;;;;21.65;97.68;98583.97;5034740;28;20255;-60
2022/06/04 00:18:31;;;;;;;5.93;5.32;;;;;;;21.62;98.16;98575.59;5016143;28;20255;-61
2022/06/04 00:20:56;;;;;;;6.82;6.22;;;;;;;21.63;98.12;98572.78;5018013;28;20189;-60
2022/06/04 00:23:23;;;;;;;8.48;5.65;;;;;;;21.66;97.66;98571.63;5029236;28;20192;-61
2022/06/04 00:25:51;;;;;;;6.93;5.45;;;;;;;21.56;98.55;98560.47;5034755;28;20189;-60
2022/06/04 00:28:19;;;;;;;5.85;5.43;;;;;;;21.58;98.34;98563.75;5029202;28;20255;-61
2022/06/04 00:30:44;;;;;;;7.65;5.53;;;;;;;21.59;98.11;98566.22;5038718;28;20184;-61
2022/06/04 00:33:10;;;;;;;9.63;6.10;;;;;;;21.60;98.56;98561.75;5039075;28;20212;-60
2022/06/04 00:35:36;;;;;;;6.72;5.60;;;;;;;21.32;99.43;98542.13;5034771;28;20186;-60
2022/06/04 00:38:04;;;;;;;6.53;5.35;;;;;;;21.46;99.10;98562.47;5022768;28;20194;-61
2022/06/04 00:40:48;;;;;;;11.65;5.93;;;;;;;21.35;99.21;98568.94;5016680;28;20186;-61
2022/06/04 00:43:14;;;;;;;5.80;5.22;;;;;;;21.40;98.96;98566.59;5024842;28;20259;-61
2022/06/04 00:46:16;;;;;;;5.93;5.40;;;;;;;21.41;99.17;98575.31;5035344;28;20189;-61
2022/06/04 00:48:42;;;;;;;6.30;5.75;;;;;;;21.27;100.00;98571.56;5039066;28;20650;-60
2022/06/04 00:51:07;;;;;;;9.20;5.18;;;;;;;21.24;100.00;98569.28;5029685;28;20278;-61
2022/06/04 00:53:35;;;;;;;6.43;5.60;;;;;;;21.25;100.00;98568.28;5039806;28;20234;-60
2022/06/04 00:56:07;;;;;;;8.38;5.07;;;;;;;21.26;100.00;98574.38;5039917;28;20184;-61
2022/06/04 00:58:56;;;;;;;9.52;5.57;;;;;;;21.29;100.00;98568.78;5020704;28;20229;-61
2022/06/04 01:01:25;;;;;;;8.13;6.05;;;;;;;21.16;100.00;98560.59;5029901;28;20602;-61
2022/06/04 01:04:02;;;;;;;6.45;5.85;;;;;;;21.14;100.00;98559.91;5039804;28;20270;-61
2022/06/04 01:06:39;;;;;;;13.88;5.97;;;;;;;21.08;100.00;98550.88;5042365;28;20192;-60
2022/06/04 01:09:41;;;;;;;6.13;5.47;;;;;;;21.04;100.00;98554.03;5037311;28;20215;-59
2022/06/04 01:12:20;;;;;;;10.55;6.13;;;;;;;21.08;100.00;98547.41;5041555;28;20208;-58
2022/06/04 01:14:55;;;;;;;7.45;5.80;;;;;;;21.08;100.00;98544.78;5045885;28;20193;-60
2022/06/04 01:17:33;;;;;;;7.95;5.35;;;;;;;21.15;100.00;98545.78;5035394;28;20180;-60
2022/06/04 01:20:14;;;;;;;6.43;5.68;;;;;;;21.20;100.00;98553.97;5038010;28;20199;-60
2022/06/04 01:22:41;;;;;;;6.53;5.15;;;;;;;21.21;100.00;98548.56;5039981;28;20176;-59
2022/06/04 01:25:36;;;;;;;6.45;5.70;;;;;;;21.29;100.00;98547.72;5040990;28;20205;-59
2022/06/04 01:28:11;;;;;;;6.50;5.82;;;;;;;21.22;100.00;98554.66;5035721;28;20181;-59
2022/06/04 01:30:43;;;;;;;7.55;5.68;;;;;;;21.28;100.00;98560.03;5036813;28;20661;-59
2022/06/04 01:33:21;;;;;;;10.40;6.10;;;;;;;21.28;100.00;98553.97;5047285;28;20740;-59
2022/06/04 01:36:01;;;;;;;8.70;5.32;;;;;;;21.33;99.53;98552.47;5038538;28;20874;-59
2022/06/04 01:38:45;;;;;;;7.20;5.43;;;;;;;21.29;100.00;98548.56;5033702;28;20661;-59
2022/06/04 01:41:25;;;;;;;6.78;5.78;;;;;;;21.35;99.61;98563.69;5036692;28;20181;-59
2022/06/04 01:44:01;;;;;;;6.63;5.88;;;;;;;21.30;99.95;98558.09;5039654;28;20177;-59
2022/06/04 01:46:48;;;;;;;6.60;5.30;;;;;;;21.29;99.73;98553.81;5040368;28;20622;-59
2022/06/04 01:49:19;;;;;;;8.85;5.60;;;;;;;21.29;100.00;98547.72;5045144;28;20541;-59
2022/06/04 01:51:48;;;;;;;7.97;5.80;;;;;;;21.11;100.00;98547.09;5039690;28;20205;-59
2022/06/04 01:54:20;;;;;;;8.07;5.50;;;;;;;21.08;100.00;98550.06;5033860;28;20288;-59
2022/06/04 01:56:53;;;;;;;6.50;5.60;;;;;;;21.02;100.00;98537.56;5034378;28;20210;-58
2022/06/04 01:59:30;;;;;;;5.93;5.32;;;;;;;21.01;100.00;98534.13;5041091;28;20251;-59
2022/06/04 02:02:01;;;;;;;7.68;5.35;;;;;;;20.96;100.00;98530.34;5043211;28;20193;-59
2022/06/04 02:04:31;;;;;;;7.35;5.63;;;;;;;20.93;100.00;98520.97;5039025;28;20179;-59
2022/06/04 02:07:32;;;;;;;7.47;5.72;;;;;;;20.87;100.00;98526.88;5040463;28;20181;-60
2022/06/04 02:10:19;;;;;;;7.20;5.70;;;;;;;20.83;100.00;98536.09;5035687;28;20192;-59
2022/06/04 02:12:48;;;;;;;9.38;5.70;;;;;;;20.93;100.00;98536.75;5039879;28;20206;-59
2022/06/04 02:15:19;;;;;;;6.45;5.78;;;;;;;21.09;100.00;98541.19;5031979;28;20197;-59
2022/06/04 02:17:49;;;;;;;6.00;5.22;;;;;;;21.16;100.00;98548.22;5045330;28;20181;-59
2022/06/04 02:20:15;;;;;;;10.40;5.50;;;;;;;21.06;100.00;98546.78;5033076;28;20182;-59
2022/06/04 02:22:41;;;;;;;6.22;5.45;;;;;;;20.91;100.00;98554.53;5041632;28;20193;-59
2022/06/04 02:25:10;;;;;;;7.35;5.65;;;;;;;20.85;100.00;98555.16;5038165;28;20631;-59
2022/06/04 02:27:36;;;;;;;7.25;5.50;;;;;;;20.74;100.00;98554.69;5040046;28;20670;-59
2022/06/04 02:30:03;;;;;;;6.70;5.90;;;;;;;20.81;100.00;98553.03;5041358;28;20216;-59
2022/06/04 02:32:37;;;;;;;7.78;5.55;;;;;;;20.80;100.00;98552.19;5034663;28;20224;-59
2022/06/04 02:35:21;;;;;;;8.20;5.13;;;;;;;20.84;100.00;98555.31;5041266;28;20218;-59
2022/06/04 02:37:54;;;;;;;7.10;5.32;;;;;;;20.83;100.00;98559.78;5042990;28;20182;-59
2022/06/04 02:40:31;;;;;;;9.18;5.97;;;;;;;20.84;100.00;98565.84;5042893;28;20182;-59
2022/06/04 02:43:22;;;;;;;6.05;5.45;;;;;;;20.75;100.00;98553.69;5043690;28;20181;-59
2022/06/04 02:46:02;;;;;;;7.07;5.22;;;;;;;20.72;100.00;98561.91;5037655;28;20238;-59
2022/06/04 02:48:32;;;;;;;6.93;6.10;;;;;;;20.72;100.00;98577.69;5039183;28;20188;-59
2022/06/04 02:51:04;;;;;;;8.90;6.20;;;;;;;20.68;100.00;98573.75;5035974;28;21112;-59
2022/06/04 02:53:32;;;;;;;11.27;6.43;;;;;;;20.66;100.00;98575.72;5033131;28;20269;-59
2022/06/04 02:56:16;;;;;;;6.90;6.13;;;;;;;20.70;100.00;98577.84;5038248;28;20271;-59
2022/06/04 02:58:43;;;;;;;5.60;5.13;;;;;;;20.70;100.00;98582.28;5041893;28;20319;-59
2022/06/04 03:01:10;;;;;;;6.45;5.85;;;;;;;20.73;100.00;98571.44;5037394;28;20788;-60
2022/06/04 03:03:36;;;;;;;8.00;5.38;;;;;;;20.85;100.00;98581.47;5032935;28;20190;-59
2022/06/04 03:06:05;;;;;;;8.30;6.10;;;;;;;20.93;100.00;98592.00;5017178;28;20190;-59
2022/06/04 03:08:35;;;;;;;6.97;6.10;;;;;;;20.91;100.00;98577.38;5018769;28;20246;-59
2022/06/04 03:11:01;;;;;;;8.38;5.70;;;;;;;20.99;100.00;98587.91;5029935;28;20221;-59
2022/06/04 03:13:26;;;;;;;8.98;6.07;;;;;;;21.01;100.00;98591.19;5042510;28;20660;-59
2022/06/04 03:15:52;;;;;;;6.35;5.75;;;;;;;20.96;100.00;98599.59;5037205;28;20197;-59
2022/06/04 03:18:18;;;;;;;8.85;5.57;;;;;;;21.01;100.00;98606.97;5040863;28;20206;-59
2022/06/04 03:20:43;;;;;;;7.75;6.40;;;;;;;21.00;100.00;98602.69;5036419;28;20269;-59
2022/06/04 03:23:09;;;;;;;7.60;6.25;;;;;;;21.00;100.00;98610.59;5033233;28;20209;-60
2022/06/04 03:25:36;;;;;;;7.53;6.68;;;;;;;20.85;100.00;98597.25;5038314;28;20231;-59
2022/06/04 03:28:03;;;;;;;8.98;6.57;;;;;;;20.92;100.00;98618.50;5036983;28;20188;-59
2022/06/04 03:30:29;;;;;;;6.43;5.70;;;;;;;20.91;100.00;98611.56;5018302;28;20181;-60
2022/06/04 03:32:55;;;;;;;7.28;5.93;;;;;;;20.89;100.00;98608.28;5026861;28;20241;-60
2022/06/04 03:35:22;;;;;;;7.57;6.28;;;;;;;20.94;100.00;98624.41;5042091;28;20196;-60
2022/06/04 03:37:47;;;;;;;7.43;5.75;;;;;;;20.96;100.00;98614.53;5041975;28;20658;-59
2022/06/04 03:40:14;;;;;;;6.65;5.82;;;;;;;21.10;100.00;98616.53;5031314;28;20181;-60
2022/06/04 03:42:39;;;;;;;10.45;5.43;;;;;;;21.18;100.00;98609.44;5031849;28;20193;-60
2022/06/04 03:45:07;;;;;;;8.98;5.90;;;;;;;21.24;100.00;98619.31;5036232;28;20245;-60
2022/06/04 03:47:36;;;;;;;8.65;6.05;;;;;;;21.29;100.00;98610.91;5021314;28;20193;-60
2022/06/04 03:50:12;;;;;;;8.50;5.93;;;;;;;21.38;99.12;98609.91;5017259;28;20232;-60
2022/06/04 03:52:37;;;;;;;8.20;6.25;;;;;;;21.43;98.27;98608.41;5025460;28;20193;-60
2022/06/04 03:55:04;;;;;;;7.18;6.28;;;;;;;21.44;97.99;98614.50;5040349;28;20847;-60
2022/06/04 03:57:38;;;;;;;6.82;6.07;;;;;;;21.46;97.89;98605.44;5033310;28;20216;-59
2022/06/04 04:00:09;;;;;;;7.78;6.10;;;;;;;21.45;99.87;98613.50;5035194;28;20186;-60
2022/06/04 04:02:36;;;;;;;7.05;6.13;;;;;;;21.58;97.37;98611.16;5042866;28;20191;-60
2022/06/04 04:05:03;;;;;;;8.07;6.60;;;;;;;21.71;95.55;98624.66;5038023;28;20220;-59
2022/06/04 04:07:28;;;;;;;7.75;5.80;;;;;;;21.70;94.87;98615.09;5037434;28;20200;-60
2022/06/04 04:09:54;;;;;;;7.18;5.90;;;;;;;21.59;95.85;98618.91;5016364;28;20193;-60
2022/06/04 04:12:20;;;;;;;8.63;6.55;;;;;;;21.61;95.83;98627.44;5017987;28;20220;-60
2022/06/04 04:14:45;;;;;;;10.07;6.50;;;;;;;21.59;96.45;98631.22;5032947;28;20189;-59
2022/06/04 04:17:11;;;;;;;11.93;6.35;;;;;;;21.60;96.65;98635.50;5037328;28;20235;-60
2022/06/04 04:19:36;;;;;;;7.20;6.20;;;;;;;21.45;97.17;98626.66;5037073;28;20190;-60
2022/06/04 04:22:02;;;;;;;6.40;5.90;;;;;;;21.41;98.77;98628.81;5044007;28;20677;-61
2022/06/04 04:24:27;;;;;;;6.45;5.78;;;;;;;21.44;98.73;98631.09;5044274;28;20194;-60
2022/06/04 04:26:53;;;;;;;7.10;6.18;;;;;;;21.41;99.53;98617.44;5034628;28;20213;-60
2022/06/04 04:29:19;;;;;;;7.35;6.35;;;;;;;21.42;99.09;98617.28;5035111;28;20305;-59
2022/06/04 04:31:44;;;;;;;6.90;6.03;;;;;;;21.51;98.38;98620.72;5035964;28;20200;-60
2022/06/04 04:34:10;;;;;;;11.82;6.50;;;;;;;21.59;98.48;98623.34;5037493;28;20188;-59
2022/06/04 04:36:35;;;;;;;10.32;6.55;;;;;;;21.67;96.95;98611.00;5043136;28;20183;-60
2022/06/04 04:39:00;;;;;;;6.10;5.45;;;;;;;21.80;95.93;98613.09;5037079;28;20253;-60
2022/06/04 04:41:26;;;;;;;7.10;6.40;;;;;;;21.76;95.84;98609.16;5034547;28;21137;-60
2022/06/04 04:43:52;;;;;;;6.88;6.13;;;;;;;21.74;96.61;98617.22;5042578;28;20666;-60
2022/06/04 04:46:19;;;;;;;6.47;5.70;;;;;;;21.86;96.42;98615.06;5040107;28;20189;-60
2022/06/04 04:48:46;;;;;;;6.57;5.97;;;;;;;21.89;95.62;98617.34;5045330;28;20196;-60
2022/06/04 04:51:15;;;;;;;10.55;6.55;;;;;;;22.06;95.47;98618.91;5002914;28;20200;-60
2022/06/04 04:53:41;;;;;;;8.60;6.43;;;;;;;22.18;93.99;98630.72;5020938;28;20181;-60
2022/06/04 04:56:07;;;;;;;7.90;6.30;;;;;;;22.31;92.71;98631.00;5032233;28;20195;-60
2022/06/04 04:58:32;;;;;;;8.90;6.30;;;;;;;22.18;93.48;98621.00;5042221;28;20609;-59
2022/06/04 05:00:58;;;;;;;9.30;5.97;;;;;;;22.17;93.99;98624.63;5047056;28;20191;-60
2022/06/04 05:03:23;;;;;;;8.30;6.22;;;;;;;22.16;94.31;98616.91;5034302;28;20190;-60
2022/06/04 05:06:00;;;;;;;8.05;6.85;;;;;;;22.35;92.92;98612.00;5042634;28;20188;-61
2022/06/04 05:08:26;;;;;;;7.95;5.75;;;;;;;22.40;92.97;98614.97;5033912;28;20550;-60
2022/06/04 05:10:51;;;;;;;8.15;5.60;;;;;;;22.55;92.17;98618.50;5028238;28;20192;-60
2022/06/04 05:13:17;;;;;;;7.90;7.13;;;;;;;22.58;91.55;98606.78;5019650;28;20670;-61
2022/06/04 05:15:43;;;;;;;8.93;6.60;;;;;;;22.61;92.19;98617.00;5021525;28;20209;-61
2022/06/04 05:18:09;;;;;;;6.60;6.00;;;;;;;22.72;91.96;98617.41;5033430;28;20198;-61
2022/06/04 05:20:34;;;;;;;8.90;6.03;;;;;;;22.89;90.83;98631.31;5042169;28;20181;-61
2022/06/04 05:23:00;;;;;;;6.43;5.82;;;;;;;22.90;90.57;98632.94;5043404;28;20177;-60
2022/06/04 05:25:25;;;;;;;7.63;6.28;;;;;;;22.93;89.86;98633.41;5042326;28;20541;-61
2022/06/04 05:27:51;;;;;;;8.65;6.07;;;;;;;23.05;88.22;98618.78;5049971;28;20180;-60
2022/06/04 05:30:16;;;;;;;7.30;6.25;;;;;;;23.10;88.69;98626.16;5034301;28;20188;-60
2022/06/04 05:32:42;;;;;;;10.23;6.68;;;;;;;23.13;88.25;98625.81;5041998;28;20236;-61
2022/06/04 05:35:08;;;;;;;8.52;5.97;;;;;;;23.14;88.48;98633.53;5039689;28;20273;-61
2022/06/04 05:37:34;;;;;;;7.15;6.28;;;;;;;23.22;88.29;98637.97;5042674;28;20666;-61
2022/06/04 05:39:59;;;;;;;9.18;6.03;;;;;;;23.34;87.30;98647.09;5040821;28;20722;-60
2022/06/04 05:42:25;;;;;;;9.43;6.65;;;;;;;23.45;87.15;98654.59;5036611;28;20651;-61
2022/06/04 05:44:52;;;;;;;8.23;6.15;;;;;;;23.58;85.86;98652.16;5037144;28;20177;-60
2022/06/04 05:47:18;;;;;;;8.23;6.45;;;;;;;23.62;86.28;98650.78;5035054;28;20185;-60
2022/06/04 05:49:43;;;;;;;7.05;6.35;;;;;;;23.70;86.13;98651.53;5037569;28;20178;-61
2022/06/04 05:52:09;;;;;;;7.65;6.78;;;;;;;23.83;84.60;98660.47;5035726;28;20288;-60
2022/06/04 05:54:34;;;;;;;11.30;8.00;;;;;;;23.95;85.27;98668.78;5018835;28;20189;-61
2022/06/04 05:57:00;;;;;;;7.88;5.95;;;;;;;24.12;84.36;98672.88;5019931;28;20205;-60
2022/06/04 05:59:25;;;;;;;11.65;7.32;;;;;;;24.32;83.22;98666.03;5033533;28;20181;-61
2022/06/04 06:01:52;;;;;;;7.35;5.53;;;;;;;24.41;82.67;98670.19;5037245;28;20209;-61
2022/06/04 06:04:20;;;;;;;6.63;6.03;;;;;;;24.51;82.66;98660.97;5037574;28;20189;-61
2022/06/04 06:06:48;;;;;;;10.32;6.40;;;;;;;24.61;81.43;98666.00;5045538;28;20717;-61
2022/06/04 06:09:16;;;;;;;8.90;6.15;;;;;;;24.78;80.74;98670.84;5042478;28;20181;-60
2022/06/04 06:11:43;;;;;;;8.38;6.20;;;;;;;24.92;80.39;98672.66;5038773;28;20208;-61
2022/06/04 06:14:09;;;;;;;6.97;6.28;;;;;;;25.09;79.43;98675.84;5032894;28;20193;-60
2022/06/04 06:16:38;;;;;;;8.55;6.68;;;;;;;25.29;79.21;98677.69;5018271;28;20258;-61
2022/06/04 06:19:03;;;;;;;10.80;6.60;;;;;;;25.25;78.45;98649.94;5020062;28;20182;-61
2022/06/04 06:21:31;;;;;;;9.38;6.53;;;;;;;25.50;77.92;98674.19;5037063;28;20189;-61
2022/06/04 06:23:58;;;;;;;8.63;6.05;;;;;;;25.53;76.29;98676.44;5031932;28;20185;-62
2022/06/04 06:26:26;;;;;;;10.05;6.32;;;;;;;25.43;75.98;98682.06;5040119;28;21193;-61
2022/06/04 06:28:53;;;;;;;9.90;6.30;;;;;;;25.53;75.55;98679.09;5041297;28;20239;-61
2022/06/04 06:31:22;;;;;;;9.80;6.70;;;;;;;25.48;74.73;98679.69;5039330;28;20188;-61
2022/06/04 06:33:48;;;;;;;9.93;6.35;;;;;;;25.57;73.86;98675.06;5041111;28;20181;-61
2022/06/04 06:36:16;;;;;;;11.25;7.15;;;;;;;25.60;73.16;98674.69;5036723;28;20929;-63
2022/06/04 06:38:43;;;;;;;20.65;7.97;;;;;;;25.69;73.25;98663.72;5038315;28;20197;-62
2022/06/04 06:41:09;;;;;;;17.48;7.68;;;;;;;25.81;73.03;98664.81;5043613;28;20180;-60
2022/06/04 06:43:39;;;;;;;12.52;8.13;;;;;;;25.95;72.34;98663.13;5031864;28;20315;-60
2022/06/04 06:46:18;;;;;;;27.92;19.70;;;;;;;26.08;71.66;98668.47;5036474;28;20181;-60
2022/06/04 06:48:44;;;;;;;14.50;9.30;;;;;;;26.21;70.01;98664.06;5030146;28;20177;-60
2022/06/04 06:51:26;;;;;;;15.70;7.68;;;;;;;26.29;69.47;98661.22;5040345;28;20189;-60
2022/06/04 06:53:54;;;;;;;10.55;7.45;;;;;;;26.35;69.82;98654.31;5032694;28;20176;-61
2022/06/04 06:56:25;;;;;;;17.55;7.30;;;;;;;26.41;69.16;98670.25;5025463;28;20196;-60
2022/06/04 06:58:51;;;;;;;10.30;6.53;;;;;;;26.50;69.74;98669.06;5017840;28;20226;-60
2022/06/04 07:01:17;;;;;;;8.57;6.30;;;;;;;26.52;70.26;98667.03;5019818;28;20272;-60
2022/06/04 07:03:43;;;;;;;15.27;7.22;;;;;;;26.46;69.24;98667.81;5036809;28;20264;-60
2022/06/04 07:06:11;;;;;;;13.27;6.82;;;;;;;26.60;68.95;98663.41;5040610;28;20185;-60
2022/06/04 07:08:39;;;;;;;16.60;7.55;;;;;;;26.38;70.42;98661.88;5042331;28;20204;-60
2022/06/04 07:11:05;;;;;;;9.65;7.07;;;;;;;26.52;69.80;98656.41;5039449;28;20189;-61
2022/06/04 07:13:31;;;;;;;12.15;7.28;;;;;;;26.41;71.06;98658.84;5040896;28;20178;-61
2022/06/04 07:15:56;;;;;;;12.15;6.47;;;;;;;26.54;71.43;98657.06;5040362;28;20182;-60
2022/06/04 07:18:23;;;;;;;11.68;7.63;;;;;;;26.67;71.13;98649.16;5018997;28;20188;-60
2022/06/04 07:20:49;;;;;;;14.60;6.95;;;;;;;26.84;71.20;98646.94;5018010;28;20185;-62
2022/06/04 07:23:16;;;;;;;13.25;7.40;;;;;;;27.00;69.85;98644.69;5025934;28;20180;-61
2022/06/04 07:25:44;;;;;;;10.55;6.75;;;;;;;27.11;69.39;98652.06;5042545;28;20185;-62
2022/06/04 07:28:12;;;;;;;15.63;7.28;;;;;;;27.18;68.90;98644.94;5037614;28;20328;-62
2022/06/04 07:30:38;;;;;;;10.70;6.60;;;;;;;27.16;68.87;98649.66;5034319;28;20193;-61
2022/06/04 07:33:04;;;;;;;8.65;6.47;;;;;;;27.14;69.12;98640.22;5038224;28;20209;-60
2022/06/04 07:35:29;;;;;;;10.60;6.72;;;;;;;27.24;67.53;98641.47;5044353;28;20623;-60
2022/06/04 07:37:55;;;;;;;9.60;6.47;;;;;;;27.33;67.84;98645.56;5033501;28;20184;-59
2022/06/04 07:40:21;;;;;;;9.57;6.20;;;;;;;27.43;67.11;98647.81;5036505;28;20862;-60
2022/06/04 07:42:47;;;;;;;10.20;6.65;;;;;;;27.48;66.13;98640.88;5038220;28;20177;-60
2022/06/04 07:45:13;;;;;;;7.57;6.40;;;;;;;27.35;67.25;98632.88;5041994;28;20196;-61
2022/06/04 07:47:40;;;;;;;11.18;5.50;;;;;;;27.37;67.19;98630.84;5038710;28;20177;-60
2022/06/04 07:50:09;;;;;;;17.05;6.20;;;;;;;27.35;68.43;98627.56;5037237;28;20189;-60
2022/06/04 07:52:37;;;;;;;8.65;6.15;;;;;;;27.41;67.88;98631.25;5033663;28;20213;-60
2022/06/04 07:55:06;;;;;;;8.10;6.28;;;;;;;27.45;68.33;98637.78;5036206;28;20188;-61
2022/06/04 07:57:32;;;;;;;10.73;6.68;;;;;;;27.54;68.45;98637.38;5041635;28;20216;-61
2022/06/04 07:59:58;;;;;;;15.07;6.88;;;;;;;27.59;68.38;98644.72;5038673;28;20181;-60
2022/06/04 08:02:25;;;;;;;9.27;5.43;;;;;;;27.60;68.40;98647.19;5036583;28;20173;-60
2022/06/04 08:04:53;;;;;;;9.48;5.95;;;;;;;27.59;69.29;98648.19;5038859;28;20276;-60
2022/06/04 08:07:20;;;;;;;5.47;4.97;;;;;;;27.68;68.47;98646.97;5044636;28;20558;-60
2022/06/04 08:09:48;;;;;;;9.35;4.75;;;;;;;27.80;67.70;98647.97;5036345;28;20182;-60
2022/06/04 08:12:14;;;;;;;11.80;4.80;;;;;;;27.87;65.91;98640.81;5035717;28;20193;-61
2022/06/04 08:14:42;;;;;;;5.40;4.90;;;;;;;27.86;64.97;98644.50;5040781;28;20185;-60
2022/06/04 08:17:08;;;;;;;9.77;4.53;;;;;;;27.94;64.07;98649.56;5036064;28;20264;-60
2022/06/04 08:19:33;;;;;;;9.00;4.28;;;;;;;27.86;64.66;98649.81;5041549;28;20276;-60
2022/06/04 08:21:59;;;;;;;8.73;4.72;;;;;;;27.80;62.90;98647.97;5036064;28;20187;-60
2022/06/04 08:24:24;;;;;;;9.80;4.85;;;;;;;27.86;63.36;98641.84;5036932;28;20173;-61
2022/06/04 08:26:58;;;;;;;9.02;4.47;;;;;;;27.93;63.57;98647.94;5040534;28;20188;-61
2022/06/04 08:29:27;;;;;;;9.25;4.43;;;;;;;27.98;59.76;98636.69;5033235;28;20173;-61
2022/06/04 08:31:53;;;;;;;7.20;3.85;;;;;;;28.09;59.01;98644.84;5040526;28;20244;-60
2022/06/04 08:34:19;;;;;;;10.32;4.50;;;;;;;28.10;59.35;98637.69;5038998;28;20184;-60
2022/06/04 08:36:45;;;;;;;8.27;3.80;;;;;;;28.18;58.76;98632.94;5035512;28;20188;-60
2022/06/04 08:39:12;;;;;;;9.85;4.43;;;;;;;28.25;57.81;98627.56;5040956;28;20662;-60
2022/06/04 08:41:38;;;;;;;10.25;4.22;;;;;;;28.34;58.20;98629.78;5023413;28;20200;-60
2022/06/04 08:44:19;;;;;;;8.80;4.93;;;;;;;28.38;61.77;98612.38;5016197;28;21182;-61
2022/06/04 08:47:11;;;;;;;11.93;5.72;;;;;;;28.47;61.91;98624.44;5018758;28;20173;-60
2022/06/04 08:49:44;;;;;;;9.30;6.10;;;;;;;28.64;62.38;98625.56;5035825;28;20204;-60
2022/06/04 08:52:22;;;;;;;8.85;5.65;;;;;;;28.71;60.58;98615.69;5039664;28;20208;-60
2022/06/04 08:57:47;;;;;;;9.30;5.13;;;;;;;28.79;59.48;98622.63;5038700;28;20325;-60
2022/06/04 09:00:16;;;;;;;9.15;5.13;;;;;;;28.73;60.26;98618.13;5041153;28;20170;-60
2022/06/04 09:03:02;;;;;;;6.13;5.25;;;;;;;28.75;60.21;98616.06;5032943;28;20193;-60
2022/06/04 09:05:39;;;;;;;7.43;4.97;;;;;;;28.83;59.59;98608.63;5016024;28;20174;-61
2022/06/04 09:08:40;;;;;;;5.72;4.57;;;;;;;28.94;57.87;98613.28;5018136;28;20185;-61
2022/06/04 09:11:17;;;;;;;6.70;3.85;;;;;;;29.01;55.78;98616.75;5031502;28;20295;-60
2022/06/04 09:14:18;;;;;;;7.80;4.25;;;;;;;28.94;55.39;98610.63;5033803;28;20189;-62
2022/06/04 09:16:50;;;;;;;12.20;4.68;;;;;;;28.98;55.03;98617.16;5039484;28;20208;-61
2022/06/04 09:19:24;;;;;;;6.75;4.03;;;;;;;28.99;53.82;98608.16;5034403;28;20731;-61
2022/06/04 09:21:49;;;;;;;4.88;4.20;;;;;;;29.13;54.00;98608.84;5036740;28;20186;-61
2022/06/04 09:24:15;;;;;;;6.68;4.32;;;;;;;29.27;53.54;98608.50;5036813;28;20751;-61
2022/06/04 09:27:23;;;;;;;7.30;3.55;;;;;;;29.47;49.69;98606.50;5036014;28;20184;-61
2022/06/04 09:30:04;;;;;;;9.23;3.72;;;;;;;29.49;48.74;98609.75;5039623;28;20194;-61
2022/06/04 09:32:44;;;;;;;6.18;3.30;;;;;;;29.61;47.34;98605.34;5043928;28;20208;-62
2022/06/04 09:35:26;;;;;;;7.53;3.50;;;;;;;29.73;46.90;98602.78;5040521;28;20212;-61
2022/06/04 09:37:52;;;;;;;6.03;3.30;;;;;;;29.71;45.01;98599.50;5031945;28;20281;-61
2022/06/04 09:40:23;;;;;;;7.38;3.38;;;;;;;29.81;45.14;98597.13;5045676;28;20323;-61
2022/06/04 09:42:49;;;;;;;7.35;3.67;;;;;;;29.83;46.52;98587.88;5033160;28;20181;-62
2022/06/04 09:45:35;;;;;;;3.60;3.25;;;;;;;29.67;46.93;98580.44;5033969;28;20193;-61
2022/06/04 09:48:01;;;;;;;8.13;3.42;;;;;;;29.64;46.67;98575.56;5039167;28;20197;-61
2022/06/04 09:50:33;;;;;;;7.30;3.17;;;;;;;29.68;43.80;98576.75;5042151;28;20280;-61
2022/06/04 09:53:16;;;;;;;3.90;3.17;;;;;;;29.68;45.29;98574.06;5036477;28;20204;-62
2022/06/04 09:56:07;;;;;;;5.25;3.33;;;;;;;29.84;42.96;98568.16;5037838;28;20181;-62
2022/06/04 09:58:39;;;;;;;5.60;3.30;;;;;;;29.87;43.58;98570.38;5040500;28;20209;-62
2022/06/04 10:01:06;;;;;;;8.38;3.25;;;;;;;29.91;45.16;98568.88;5033159;28;20212;-62
2022/06/04 10:03:39;;;;;;;6.63;2.92;;;;;;;29.89;44.89;98565.63;5040543;28;20564;-61
2022/06/04 10:06:13;;;;;;;5.82;3.28;;;;;;;29.92;44.40;98561.72;5026291;28;20181;-61
2022/06/04 10:11:36;;;;;;;7.70;3.17;;;;;;;29.82;45.64;98546.22;5026102;28;20331;-61
2022/06/04 10:14:02;;;;;;;13.27;3.88;;;;;;;30.01;45.29;98558.50;5042991;28;20651;-61
2022/06/04 10:16:44;;;;;;;6.55;3.67;;;;;;;30.03;45.83;98553.75;5046970;28;20240;-61
2022/06/04 10:19:12;;;;;;;6.13;3.42;;;;;;;29.94;45.97;98544.44;5037725;28;20292;-60
2022/06/04 10:21:41;;;;;;;5.70;3.63;;;;;;;30.06;46.73;98547.97;5047405;28;20177;-61
2022/06/04 10:24:28;;;;;;;5.60;3.55;;;;;;;30.16;43.94;98545.63;5041010;28;20173;-60
2022/06/04 10:26:59;;;;;;;7.40;3.03;;;;;;;30.22;43.50;98536.72;5033141;28;20189;-61
2022/06/04 10:29:43;;;;;;;9.25;3.08;;;;;;;30.25;43.53;98530.91;5018566;28;20647;-61
2022/06/04 10:32:18;;;;;;;8.27;3.35;;;;;;;30.34;46.68;98534.88;5020682;28;20205;-62
2022/06/04 10:35:01;;;;;;;6.85;3.47;;;;;;;30.41;46.61;98518.75;5036743;28;20193;-61
2022/06/04 10:37:56;;;;;;;8.20;3.58;;;;;;;30.70;47.05;98529.44;5033169;28;20315;-61
2022/06/04 10:40:37;;;;;;;4.10;2.90;;;;;;;30.87;42.10;98530.41;5030369;28;20209;-61
2022/06/04 10:43:18;;;;;;;3.13;2.80;;;;;;;31.14;40.57;98534.22;5031662;28;20193;-61
2022/06/04 10:45:49;;;;;;;5.18;3.10;;;;;;;31.41;40.03;98527.41;5035919;28;20674;-61
2022/06/04 10:48:52;;;;;;;2.92;2.65;;;;;;;31.69;39.87;98524.78;5040567;28;20180;-62
2022/06/04 10:51:35;;;;;;;4.35;2.90;;;;;;;31.84;40.97;98530.50;5038244;28;20176;-61
2022/06/04 10:54:30;;;;;;;8.05;3.60;;;;;;;31.89;41.61;98525.22;5043421;28;20180;-62
2022/06/04 10:57:20;;;;;;;4.55;2.75;;;;;;;32.18;41.46;98518.03;5038201;28;20220;-61
2022/06/04 11:00:10;;;;;;;5.05;2.70;;;;;;;32.28;40.14;98516.38;5041137;28;20173;-62
2022/06/04 11:02:45;;;;;;;6.97;2.88;;;;;;;32.39;40.28;98509.31;5036482;28;20174;-62
2022/06/04 11:05:50;;;;;;;5.80;3.20;;;;;;;32.46;40.98;98508.13;5031351;28;20181;-61
2022/06/04 11:08:24;;;;;;;10.75;4.10;;;;;;;32.37;39.85;98509.59;5033792;28;20193;-62
2022/06/04 11:10:53;;;;;;;4.78;3.25;;;;;;;32.63;37.77;98506.28;5016473;28;20188;-62
2022/06/04 11:13:34;;;;;;;6.00;2.67;;;;;;;32.72;36.75;98501.31;5018730;28;20259;-62
2022/06/04 11:16:23;;;;;;;8.25;3.40;;;;;;;32.59;37.41;98499.75;5032827;28;20193;-62
2022/06/04 11:18:51;;;;;;;7.30;3.25;;;;;;;32.61;36.29;98492.31;5032499;28;20209;-62
2022/06/04 11:21:23;;;;;;;4.72;3.05;;;;;;;32.44;37.30;98496.84;5033296;28;20182;-62
2022/06/04 11:24:26;;;;;;;7.55;3.20;;;;;;;32.53;35.96;98500.72;5035656;28;20181;-62
2022/06/04 11:27:17;;;;;;;5.32;2.88;;;;;;;32.51;35.91;98496.66;5030169;28;20822;-61
2022/06/04 11:29:42;;;;;;;4.13;2.47;;;;;;;32.37;36.87;98493.50;5033627;28;20181;-61
2022/06/04 11:32:18;;;;;;;4.30;2.80;;;;;;;32.56;36.57;98492.22;5017234;28;20718;-62
2022/06/04 11:35:08;;;;;;;9.02;3.78;;;;;;;32.67;36.82;98485.16;5018897;28;20182;-62
2022/06/04 11:37:52;;;;;;;5.07;2.60;;;;;;;32.93;35.84;98485.34;5037926;28;20673;-62
2022/06/04 11:40:35;;;;;;;4.90;2.83;;;;;;;33.02;35.45;98481.19;5034960;28;20192;-62
2022/06/04 11:43:10;;;;;;;5.13;2.50;;;;;;;33.20;34.53;98475.53;5029599;28;20200;-62
2022/06/04 11:45:47;;;;;;;3.42;2.58;;;;;;;33.06;35.50;98463.53;5032065;28;20221;-62
2022/06/04 11:48:21;;;;;;;3.67;2.60;;;;;;;33.36;34.88;98471.22;5042823;28;20196;-63
2022/06/04 11:50:59;;;;;;;4.88;2.28;;;;;;;33.39;34.32;98458.13;5039442;28;20172;-62
2022/06/04 11:53:43;;;;;;;4.95;2.60;;;;;;;33.61;34.59;98458.13;5036489;28;20910;-62
2022/06/04 11:56:16;;;;;;;4.10;2.20;;;;;;;33.46;34.50;98458.75;5038627;28;20743;-62
2022/06/04 11:59:20;;;;;;;3.05;2.63;;;;;;;33.62;34.17;98452.50;5030648;28;20216;-62
2022/06/04 12:01:54;;;;;;;5.32;2.60;;;;;;;33.43;34.80;98445.84;5032052;28;20213;-62